Time;durP1;ratioP1;P1;durP2;ratioP2;P2;SDS_P1;SDS_P2;PMS_P1;PMS_P2;Temp;Humidity;BMP_temperature;BMP_pressure;BME280_temperature;BME280_humidity;BME280_pressure;Samples;Min_cycle;Max_cycle;Signal;HPM_P1;HPM_P2
2021/08/24 00:00:22;;;;;;;;;;;14.80;83.80;;;;;;5046941;28;19975;-74
2021/08/24 00:02:47;;;;;;;;;;;14.80;84.00;;;;;;5031502;28;19920;-74
2021/08/24 00:05:17;;;;;;;;;;;14.70;84.00;;;;;;5047695;28;19970;-74
2021/08/24 00:07:42;;;;;;;;;;;14.70;84.80;;;;;;5049083;28;19939;-72
2021/08/24 00:10:08;;;;;;;;;;;14.70;84.80;;;;;;5048260;28;19917;-73
2021/08/24 00:12:33;;;;;;;;;;;14.80;85.30;;;;;;5049218;28;20004;-73
2021/08/24 00:14:59;;;;;;;;;;;14.90;85.00;;;;;;5048506;28;19971;-73
2021/08/24 00:17:24;;;;;;;;;;;14.90;85.20;;;;;;5028789;28;19971;-72
2021/08/24 00:19:50;;;;;;;;;;;14.80;84.60;;;;;;5048332;28;19917;-73
2021/08/24 00:22:15;;;;;;;;;;;14.80;85.50;;;;;;5048440;28;19917;-73
2021/08/24 00:24:41;;;;;;;;;;;14.80;85.30;;;;;;5047952;28;20299;-73
2021/08/24 00:27:06;;;;;;;;;;;14.70;84.80;;;;;;5048953;28;19917;-73
2021/08/24 00:29:31;;;;;;;;;;;14.70;85.80;;;;;;5029288;28;19923;-73
2021/08/24 00:31:57;;;;;;;;;;;14.70;85.70;;;;;;5031550;28;19974;-74
2021/08/24 00:34:22;;;;;;;;;;;14.70;85.50;;;;;;5029879;28;19935;-73
2021/08/24 00:36:48;;;;;;;;;;;14.60;85.40;;;;;;5049765;28;20381;-73
2021/08/24 00:39:13;;;;;;;;;;;14.60;85.70;;;;;;5031397;28;19912;-73
2021/08/24 00:41:38;;;;;;;;;;;14.70;86.50;;;;;;5031144;28;20352;-74
2021/08/24 00:44:05;;;;;;;;;;;14.80;86.10;;;;;;5046017;28;19916;-74
2021/08/24 00:46:50;;;;;;;;;;;14.90;86.00;;;;;;5048431;28;19923;-74
2021/08/24 00:49:17;;;;;;;;;;;14.90;85.40;;;;;;5047110;28;19917;-73
2021/08/24 00:51:45;;;;;;;;;;;14.90;85.60;;;;;;5048384;28;19924;-73
2021/08/24 00:54:12;;;;;;;;;;;14.90;85.30;;;;;;5046621;28;19950;-73
2021/08/24 00:56:38;;;;;;;;;;;14.80;85.70;;;;;;5047053;28;20370;-73
2021/08/24 00:59:04;;;;;;;;;;;14.80;85.90;;;;;;5048044;28;19927;-73
2021/08/24 01:01:30;;;;;;;;;;;14.80;86.40;;;;;;5030502;28;19913;-73
2021/08/24 01:03:55;;;;;;;;;;;14.80;86.00;;;;;;5046901;28;19920;-73
2021/08/24 01:06:20;;;;;;;;;;;14.70;86.10;;;;;;5046714;28;19971;-73
2021/08/24 01:09:12;;;;;;;;;;;14.60;86.10;;;;;;5048613;28;20387;-73
2021/08/24 01:11:42;;;;;;;;;;;14.50;86.20;;;;;;5048612;28;19917;-75
2021/08/24 01:14:20;;;;;;;;;;;14.40;87.40;;;;;;5047087;28;19924;-74
2021/08/24 01:16:53;;;;;;;;;;;14.40;87.50;;;;;;5048293;28;19920;-73
2021/08/24 01:19:30;;;;;;;;;;;14.50;87.80;;;;;;5048473;28;20506;-73
2021/08/24 01:22:06;;;;;;;;;;;14.50;87.70;;;;;;5046849;28;20470;-73
2021/08/24 01:24:38;;;;;;;;;;;14.40;87.30;;;;;;5024337;28;19967;-72
2021/08/24 01:27:08;;;;;;;;;;;14.30;87.70;;;;;;5022207;28;19916;-73
2021/08/24 01:29:52;;;;;;;;;;;14.30;88.50;;;;;;5047638;28;19919;-73
2021/08/24 01:32:21;;;;;;;;;;;14.20;88.00;;;;;;5043720;28;19916;-73
2021/08/24 01:35:13;;;;;;;;;;;14.20;88.10;;;;;;5031058;28;19951;-73
2021/08/24 01:37:44;;;;;;;;;;;14.20;88.10;;;;;;5052042;28;19913;-73
2021/08/24 01:40:26;;;;;;;;;;;14.10;88.20;;;;;;5027876;28;19921;-73
2021/08/24 01:42:51;;;;;;;;;;;14.00;88.60;;;;;;5051760;28;19982;-73
2021/08/24 01:45:30;;;;;;;;;;;14.00;88.80;;;;;;5033481;28;19917;-73
2021/08/24 01:48:01;;;;;;;;;;;14.00;88.70;;;;;;5033547;28;19909;-73
2021/08/24 01:50:43;;;;;;;;;;;13.90;88.60;;;;;;5027155;28;20004;-73
2021/08/24 01:53:15;;;;;;;;;;;13.90;89.60;;;;;;5029792;28;20010;-73
2021/08/24 01:55:54;;;;;;;;;;;14.00;89.60;;;;;;5052763;28;19921;-73
2021/08/24 01:58:26;;;;;;;;;;;14.00;89.00;;;;;;5039039;28;19986;-73
2021/08/24 02:00:56;;;;;;;;;;;13.90;89.30;;;;;;5037841;28;20360;-73
2021/08/24 02:03:41;;;;;;;;;;;13.90;90.00;;;;;;5032778;28;19924;-73
2021/08/24 02:06:10;;;;;;;;;;;13.90;89.30;;;;;;5049395;28;19920;-73
2021/08/24 02:08:37;;;;;;;;;;;13.90;90.00;;;;;;5025194;28;20275;-73
2021/08/24 02:11:04;;;;;;;;;;;13.90;90.00;;;;;;5049951;28;19916;-73
2021/08/24 02:13:34;;;;;;;;;;;13.90;90.00;;;;;;5051697;28;19916;-73
2021/08/24 02:16:01;;;;;;;;;;;13.90;90.10;;;;;;5049952;28;19959;-73
2021/08/24 02:18:30;;;;;;;;;;;13.80;89.90;;;;;;5032314;28;19916;-73
2021/08/24 02:21:01;;;;;;;;;;;13.70;90.30;;;;;;5032719;28;20400;-73
2021/08/24 02:23:28;;;;;;;;;;;13.60;90.40;;;;;;5050557;28;19966;-73
2021/08/24 02:25:55;;;;;;;;;;;13.70;90.50;;;;;;5049329;28;19958;-73
2021/08/24 02:28:24;;;;;;;;;;;13.80;90.50;;;;;;5051602;28;19919;-73
2021/08/24 02:30:55;;;;;;;;;;;13.80;90.40;;;;;;5049302;28;20371;-73
2021/08/24 02:33:21;;;;;;;;;;;13.90;90.30;;;;;;5051323;28;19909;-73
2021/08/24 02:35:57;;;;;;;;;;;13.90;90.30;;;;;;5025351;28;19913;-73
2021/08/24 02:38:24;;;;;;;;;;;13.90;90.20;;;;;;5051497;28;19909;-73
2021/08/24 02:40:50;;;;;;;;;;;13.90;90.30;;;;;;5049694;28;19965;-73
2021/08/24 02:43:31;;;;;;;;;;;13.80;90.30;;;;;;5048012;28;19924;-73
2021/08/24 02:45:59;;;;;;;;;;;13.60;90.40;;;;;;5030530;28;19970;-73
2021/08/24 02:48:26;;;;;;;;;;;13.40;90.40;;;;;;5050835;28;19921;-73
2021/08/24 02:50:52;;;;;;;;;;;13.40;90.70;;;;;;5049380;28;19935;-73
2021/08/24 02:53:19;;;;;;;;;;;13.60;90.80;;;;;;5049323;28;19917;-73
2021/08/24 02:55:45;;;;;;;;;;;13.60;90.80;;;;;;5045742;28;19939;-73
2021/08/24 02:58:10;;;;;;;;;;;13.60;90.80;;;;;;5049853;28;20364;-73
2021/08/24 03:00:36;;;;;;;;;;;13.50;90.60;;;;;;5022676;28;19983;-73
2021/08/24 03:03:01;;;;;;;;;;;13.40;90.60;;;;;;5031509;28;19921;-73
2021/08/24 03:05:27;;;;;;;;;;;13.40;91.30;;;;;;5048153;28;19913;-73
2021/08/24 03:07:52;;;;;;;;;;;13.30;91.00;;;;;;5047422;28;20119;-73
2021/08/24 03:10:20;;;;;;;;;;;13.40;91.70;;;;;;5049306;28;19913;-73
2021/08/24 03:12:52;;;;;;;;;;;13.50;91.30;;;;;;5046966;28;19996;-73
2021/08/24 03:15:17;;;;;;;;;;;13.40;91.60;;;;;;5048430;28;19913;-73
2021/08/24 03:17:46;;;;;;;;;;;13.40;91.40;;;;;;5030511;28;20046;-73
2021/08/24 03:20:14;;;;;;;;;;;13.40;91.50;;;;;;5049551;28;19915;-73
2021/08/24 03:22:40;;;;;;;;;;;13.40;91.30;;;;;;5048023;28;20387;-73
2021/08/24 03:25:07;;;;;;;;;;;13.30;91.20;;;;;;5046357;28;19985;-73
2021/08/24 03:27:34;;;;;;;;;;;13.10;91.80;;;;;;5049318;28;19908;-73
2021/08/24 03:30:03;;;;;;;;;;;13.10;91.60;;;;;;5047526;28;19923;-73
2021/08/24 03:32:28;;;;;;;;;;;13.00;91.70;;;;;;5029984;28;20307;-73
2021/08/24 03:34:53;;;;;;;;;;;12.90;92.00;;;;;;5030292;28;20027;-73
2021/08/24 03:37:19;;;;;;;;;;;12.90;92.00;;;;;;5049514;28;19949;-73
2021/08/24 03:39:44;;;;;;;;;;;12.90;92.20;;;;;;5047916;28;20363;-73
2021/08/24 03:42:10;;;;;;;;;;;13.00;92.50;;;;;;5048021;28;19965;-73
2021/08/24 03:44:35;;;;;;;;;;;13.10;92.40;;;;;;5027065;28;19924;-73
2021/08/24 03:47:01;;;;;;;;;;;13.20;92.30;;;;;;5046754;28;19917;-73
2021/08/24 03:49:26;;;;;;;;;;;13.20;92.20;;;;;;5029820;28;19909;-73
2021/08/24 03:51:51;;;;;;;;;;;13.20;92.10;;;;;;5048717;28;19921;-73
2021/08/24 03:54:17;;;;;;;;;;;13.10;92.20;;;;;;4987104;28;1695496;-73
2021/08/24 03:56:42;;;;;;;;;;;13.00;92.30;;;;;;5024637;28;19962;-73
2021/08/24 03:59:08;;;;;;;;;;;13.00;92.40;;;;;;5049682;28;20322;-73
2021/08/24 04:01:34;;;;;;;;;;;13.00;92.30;;;;;;5028146;28;19963;-73
2021/08/24 04:03:59;;;;;;;;;;;12.90;92.60;;;;;;5029871;28;19990;-73
2021/08/24 04:06:25;;;;;;;;;;;12.90;92.50;;;;;;5047368;28;19920;-73
2021/08/24 04:08:50;;;;;;;;;;;12.90;92.40;;;;;;5030489;28;19970;-73
2021/08/24 04:11:16;;;;;;;;;;;12.80;92.30;;;;;;5047451;28;20367;-73
2021/08/24 04:13:41;;;;;;;;;;;12.80;92.60;;;;;;5047686;28;19917;-73
2021/08/24 04:16:08;;;;;;;;;;;12.80;92.50;;;;;;5045787;28;19916;-73
2021/08/24 04:18:34;;;;;;;;;;;12.80;92.60;;;;;;5047675;28;19913;-73
2021/08/24 04:21:00;;;;;;;;;;;12.80;92.70;;;;;;5023473;28;19917;-73
2021/08/24 04:23:26;;;;;;;;;;;13.00;92.60;;;;;;5046623;28;19962;-73
2021/08/24 04:25:51;;;;;;;;;;;13.10;92.60;;;;;;5027198;28;19931;-69
2021/08/24 04:28:16;;;;;;;;;;;13.00;92.80;;;;;;5047384;28;19913;-69
2021/08/24 04:30:42;;;;;;;;;;;12.80;93.10;;;;;;5047771;28;20300;-69
2021/08/24 04:33:08;;;;;;;;;;;12.70;93.40;;;;;;5047439;28;19921;-69
2021/08/24 04:35:33;;;;;;;;;;;12.60;93.40;;;;;;5045558;28;20006;-69
2021/08/24 04:37:59;;;;;;;;;;;12.60;93.60;;;;;;5047849;28;19920;-70
2021/08/24 04:40:27;;;;;;;;;;;12.60;93.80;;;;;;5048661;28;19920;-69
2021/08/24 04:42:53;;;;;;;;;;;12.60;93.80;;;;;;5046080;28;20391;-69
2021/08/24 04:45:18;;;;;;;;;;;12.60;94.00;;;;;;5045745;28;19995;-69
2021/08/24 04:47:44;;;;;;;;;;;12.70;94.00;;;;;;5046873;28;20363;-70
2021/08/24 04:50:10;;;;;;;;;;;12.80;93.90;;;;;;5046352;28;20011;-69
2021/08/24 04:52:36;;;;;;;;;;;12.90;93.80;;;;;;5028457;28;19955;-69
2021/08/24 04:55:01;;;;;;;;;;;13.00;93.60;;;;;;5045638;28;19924;-69
2021/08/24 04:57:26;;;;;;;;;;;13.10;93.60;;;;;;5044619;28;20011;-68
2021/08/24 04:59:52;;;;;;;;;;;13.20;93.50;;;;;;5043745;28;20291;-70
2021/08/24 05:02:19;;;;;;;;;;;13.30;93.40;;;;;;5041756;28;19917;-71
2021/08/24 05:04:44;;;;;;;;;;;13.40;93.30;;;;;;5026572;28;19942;-71
2021/08/24 05:07:10;;;;;;;;;;;13.40;93.20;;;;;;5030544;28;19919;-71
2021/08/24 05:09:35;;;;;;;;;;;13.50;93.00;;;;;;5051265;28;20367;-71
2021/08/24 05:12:01;;;;;;;;;;;13.60;92.90;;;;;;5033062;28;20382;-71
2021/08/24 05:14:26;;;;;;;;;;;13.60;92.90;;;;;;5033004;28;20331;-71
2021/08/24 05:16:52;;;;;;;;;;;13.80;92.90;;;;;;5033541;28;19913;-71
2021/08/24 05:19:18;;;;;;;;;;;14.00;92.70;;;;;;5051984;28;19920;-71
2021/08/24 05:21:43;;;;;;;;;;;14.10;92.60;;;;;;5052110;28;19913;-71
2021/08/24 05:24:08;;;;;;;;;;;14.20;92.40;;;;;;5051415;28;19931;-71
2021/08/24 05:26:34;;;;;;;;;;;14.40;92.30;;;;;;5052619;28;19909;-71
2021/08/24 05:28:59;;;;;;;;;;;14.50;92.00;;;;;;5051356;28;19916;-71
2021/08/24 05:31:25;;;;;;;;;;;14.50;91.70;;;;;;5052488;28;19909;-71
2021/08/24 05:33:50;;;;;;;;;;;14.50;91.60;;;;;;5052140;28;19919;-71
2021/08/24 05:36:16;;;;;;;;;;;14.30;91.70;;;;;;5051688;28;19923;-71
2021/08/24 05:38:41;;;;;;;;;;;14.20;91.90;;;;;;5033820;28;19917;-71
2021/08/24 05:41:07;;;;;;;;;;;14.10;91.90;;;;;;5052559;28;20031;-71
2021/08/24 05:43:32;;;;;;;;;;;14.00;92.00;;;;;;5051071;28;20012;-70
2021/08/24 05:46:02;;;;;;;;;;;14.00;92.20;;;;;;5049876;28;20387;-70
2021/08/24 05:48:28;;;;;;;;;;;14.10;92.10;;;;;;5050904;28;19913;-71
2021/08/24 05:50:54;;;;;;;;;;;14.10;92.10;;;;;;5050341;28;19920;-71
2021/08/24 05:53:20;;;;;;;;;;;14.20;92.30;;;;;;5052455;28;19912;-71
2021/08/24 05:55:45;;;;;;;;;;;14.20;92.20;;;;;;5052193;28;19946;-71
2021/08/24 05:58:11;;;;;;;;;;;14.30;92.30;;;;;;5050618;28;20287;-71
2021/08/24 06:00:36;;;;;;;;;;;14.40;92.40;;;;;;5050560;28;20312;-71
2021/08/24 06:03:03;;;;;;;;;;;14.50;92.10;;;;;;5050502;28;19928;-70
2021/08/24 06:05:28;;;;;;;;;;;14.50;92.00;;;;;;5050558;28;19913;-70
2021/08/24 06:07:53;;;;;;;;;;;14.50;92.00;;;;;;5026879;28;20318;-72
2021/08/24 06:10:19;;;;;;;;;;;14.70;92.00;;;;;;5051657;28;19912;-71
2021/08/24 06:12:45;;;;;;;;;;;14.70;92.00;;;;;;5049720;28;19920;-71
2021/08/24 06:15:10;;;;;;;;;;;14.60;91.80;;;;;;5031272;28;19920;-71
2021/08/24 06:17:36;;;;;;;;;;;14.40;91.90;;;;;;5049858;28;19916;-73
2021/08/24 06:20:01;;;;;;;;;;;14.30;92.20;;;;;;5048773;28;19916;-72
2021/08/24 06:22:27;;;;;;;;;;;14.30;92.30;;;;;;5051010;28;19917;-71
2021/08/24 06:24:52;;;;;;;;;;;14.40;92.50;;;;;;5050562;28;19990;-70
2021/08/24 06:27:18;;;;;;;;;;;14.50;92.60;;;;;;5050372;28;20456;-71
2021/08/24 06:29:44;;;;;;;;;;;14.70;92.20;;;;;;5050965;28;20364;-72
2021/08/24 06:32:36;;;;;;;;;;;14.60;92.20;;;;;;5050320;28;19978;-71
2021/08/24 06:35:02;;;;;;;;;;;14.40;92.40;;;;;;5044269;28;20394;-71
2021/08/24 06:37:28;;;;;;;;;;;14.30;92.90;;;;;;5050760;28;19917;-72
2021/08/24 06:39:53;;;;;;;;;;;14.20;93.10;;;;;;5031812;28;20326;-72
2021/08/24 06:42:19;;;;;;;;;;;14.20;93.30;;;;;;5049734;28;19925;-72
2021/08/24 06:44:44;;;;;;;;;;;14.30;93.30;;;;;;5050229;28;19909;-72
2021/08/24 06:47:10;;;;;;;;;;;14.40;93.20;;;;;;5050287;28;20272;-73
2021/08/24 06:49:35;;;;;;;;;;;14.60;93.10;;;;;;5032518;28;20406;-73
2021/08/24 06:52:04;;;;;;;;;;;14.80;93.00;;;;;;5029473;28;19942;-72
2021/08/24 06:54:30;;;;;;;;;;;14.90;92.80;;;;;;5025054;28;19952;-72
2021/08/24 06:56:55;;;;;;;;;;;14.90;92.60;;;;;;5025736;28;19948;-72
2021/08/24 06:59:21;;;;;;;;;;;14.90;92.60;;;;;;5050548;28;19962;-72
2021/08/24 07:01:47;;;;;;;;;;;14.90;92.70;;;;;;5049596;28;19960;-71
2021/08/24 07:04:12;;;;;;;;;;;14.90;92.80;;;;;;5049694;28;20375;-71
2021/08/24 07:06:39;;;;;;;;;;;15.00;92.80;;;;;;5048822;28;19917;-71
2021/08/24 07:09:05;;;;;;;;;;;15.00;92.80;;;;;;5047222;28;20446;-71
2021/08/24 07:11:31;;;;;;;;;;;15.10;92.80;;;;;;5048351;28;20015;-72
2021/08/24 07:13:58;;;;;;;;;;;15.30;92.80;;;;;;5048506;28;19970;-68
2021/08/24 07:16:24;;;;;;;;;;;15.40;92.40;;;;;;5029934;28;19913;-69
2021/08/24 07:18:53;;;;;;;;;;;15.40;92.40;;;;;;5030988;28;19920;-70
2021/08/24 07:21:20;;;;;;;;;;;15.40;92.40;;;;;;5049449;28;19956;-72
2021/08/24 07:23:46;;;;;;;;;;;15.50;92.50;;;;;;5049539;28;19929;-73
2021/08/24 07:26:12;;;;;;;;;;;15.60;92.30;;;;;;5029008;28;19913;-74
2021/08/24 07:28:38;;;;;;;;;;;15.70;92.20;;;;;;5048374;28;20380;-73
2021/08/24 07:31:03;;;;;;;;;;;15.80;92.10;;;;;;5048967;28;19943;-72
2021/08/24 07:33:29;;;;;;;;;;;15.80;91.80;;;;;;5030194;28;19958;-71
2021/08/24 07:35:54;;;;;;;;;;;15.90;91.70;;;;;;5030931;28;19952;-71
2021/08/24 07:38:19;;;;;;;;;;;15.90;91.80;;;;;;5030951;28;19917;-72
2021/08/24 07:40:45;;;;;;;;;;;16.00;91.60;;;;;;5048955;28;19912;-71
2021/08/24 07:43:11;;;;;;;;;;;16.10;91.60;;;;;;5047821;28;19932;-71
2021/08/24 07:45:36;;;;;;;;;;;16.10;91.40;;;;;;5047672;28;20392;-70
2021/08/24 07:48:02;;;;;;;;;;;16.10;91.40;;;;;;5048453;28;19917;-70
2021/08/24 07:50:27;;;;;;;;;;;16.10;91.30;;;;;;5047889;28;19917;-70
2021/08/24 07:52:53;;;;;;;;;;;16.10;91.20;;;;;;5049349;28;19992;-70
2021/08/24 07:55:18;;;;;;;;;;;16.20;91.20;;;;;;5030378;28;20434;-72
2021/08/24 07:57:44;;;;;;;;;;;16.20;91.20;;;;;;5048739;28;19916;-70
2021/08/24 08:00:09;;;;;;;;;;;16.30;91.00;;;;;;5047018;28;19995;-72
2021/08/24 08:02:35;;;;;;;;;;;16.30;90.50;;;;;;5045270;28;19943;-73
2021/08/24 08:05:01;;;;;;;;;;;16.20;90.70;;;;;;5047299;28;19917;-72
2021/08/24 08:07:26;;;;;;;;;;;16.30;90.80;;;;;;5049145;28;19913;-71
2021/08/24 08:09:52;;;;;;;;;;;16.40;90.80;;;;;;5048825;28;19916;-72
2021/08/24 08:12:18;;;;;;;;;;;16.60;90.70;;;;;;5048583;28;19953;-72
2021/08/24 08:14:44;;;;;;;;;;;16.60;90.20;;;;;;5028450;28;19940;-72
2021/08/24 08:17:10;;;;;;;;;;;16.70;90.00;;;;;;5048623;28;20002;-72
2021/08/24 08:19:36;;;;;;;;;;;16.60;89.70;;;;;;5028454;28;19912;-70
2021/08/24 08:22:02;;;;;;;;;;;16.70;89.60;;;;;;5048692;28;19927;-72
2021/08/24 08:24:27;;;;;;;;;;;16.90;89.60;;;;;;5048045;28;19927;-72
2021/08/24 08:26:53;;;;;;;;;;;17.10;88.70;;;;;;5048775;28;19925;-71
2021/08/24 08:29:18;;;;;;;;;;;17.20;87.50;;;;;;5048056;28;19987;-71
2021/08/24 08:31:45;;;;;;;;;;;17.20;87.30;;;;;;5048696;28;20016;-71
2021/08/24 08:34:11;;;;;;;;;;;17.40;87.60;;;;;;5046700;28;19917;-72
2021/08/24 08:36:37;;;;;;;;;;;17.50;86.30;;;;;;5057572;28;19917;-71
2021/08/24 08:39:02;;;;;;;;;;;17.50;85.50;;;;;;5038756;28;19943;-72
2021/08/24 08:41:40;;;;;;;;;;;17.60;84.90;;;;;;5062296;28;19917;-70
2021/08/24 08:44:40;;;;;;;;;;;17.70;84.00;;;;;;5062175;28;19971;-71
2021/08/24 08:47:14;;;;;;;;;;;17.90;84.10;;;;;;5001029;28;19917;-71
2021/08/24 08:49:47;;;;;;;;;;;17.90;82.90;;;;;;5045421;28;19939;-70
2021/08/24 08:52:22;;;;;;;;;;;17.80;81.70;;;;;;5053254;28;19919;-70
2021/08/24 08:54:54;;;;;;;;;;;18.00;82.60;;;;;;5052922;28;19921;-70
2021/08/24 08:57:26;;;;;;;;;;;18.00;81.30;;;;;;5051231;28;20379;-71
2021/08/24 09:00:07;;;;;;;;;;;18.10;80.90;;;;;;5034806;28;19912;-70
2021/08/24 09:02:42;;;;;;;;;;;18.20;79.20;;;;;;5052000;28;19971;-70
2021/08/24 09:05:08;;;;;;;;;;;18.20;78.70;;;;;;5026364;28;19982;-71
2021/08/24 09:07:41;;;;;;;;;;;18.10;79.40;;;;;;5024543;28;19916;-71
2021/08/24 09:10:08;;;;;;;;;;;18.30;79.40;;;;;;5052489;28;19991;-71
2021/08/24 09:12:36;;;;;;;;;;;18.30;77.80;;;;;;5026527;28;19917;-71
2021/08/24 09:15:03;;;;;;;;;;;18.30;78.40;;;;;;5050220;28;19917;-72
2021/08/24 09:17:33;;;;;;;;;;;18.50;78.40;;;;;;5050843;28;19971;-72
2021/08/24 09:20:01;;;;;;;;;;;18.50;78.10;;;;;;5027129;28;20376;-71
2021/08/24 09:22:27;;;;;;;;;;;18.60;78.00;;;;;;5051925;28;20390;-71
2021/08/24 09:24:52;;;;;;;;;;;18.60;78.20;;;;;;5051227;28;19912;-72
2021/08/24 09:27:21;;;;;;;;;;;18.70;78.20;;;;;;5051883;28;19952;-71
2021/08/24 09:29:48;;;;;;;;;;;18.90;77.70;;;;;;5051510;28;19912;-71
2021/08/24 09:32:19;;;;;;;;;;;18.90;76.90;;;;;;5049719;28;19923;-71
2021/08/24 09:34:46;;;;;;;;;;;18.80;76.90;;;;;;5032673;28;20003;-71
2021/08/24 09:37:16;;;;;;;;;;;18.70;76.80;;;;;;5051340;28;19913;-71
2021/08/24 09:39:48;;;;;;;;;;;18.50;77.10;;;;;;5052355;28;19955;-70
2021/08/24 09:42:14;;;;;;;;;;;18.50;77.90;;;;;;5052001;28;19971;-70
2021/08/24 09:44:40;;;;;;;;;;;18.50;77.80;;;;;;5026245;28;20422;-71
2021/08/24 09:47:16;;;;;;;;;;;18.60;77.70;;;;;;5050680;28;19952;-70
2021/08/24 09:49:42;;;;;;;;;;;18.70;77.60;;;;;;5046232;28;20311;-70
2021/08/24 09:52:12;;;;;;;;;;;18.80;77.20;;;;;;5033038;28;19913;-70
2021/08/24 09:54:39;;;;;;;;;;;18.90;76.40;;;;;;5051446;28;19923;-70
2021/08/24 09:57:11;;;;;;;;;;;19.00;76.50;;;;;;5033171;28;19991;-70
2021/08/24 09:59:41;;;;;;;;;;;19.20;75.90;;;;;;5051712;28;20417;-70
2021/08/24 10:02:26;;;;;;;;;;;19.30;74.90;;;;;;5042469;28;20437;-70
2021/08/24 10:04:54;;;;;;;;;;;19.20;74.20;;;;;;5050274;28;19913;-70
2021/08/24 10:07:36;;;;;;;;;;;19.10;75.40;;;;;;5051692;28;19908;-70
2021/08/24 10:10:03;;;;;;;;;;;19.10;75.20;;;;;;5051775;28;20351;-70
2021/08/24 10:12:30;;;;;;;;;;;19.00;75.20;;;;;;5051712;28;19940;-71
2021/08/24 10:14:56;;;;;;;;;;;18.90;75.50;;;;;;5032459;28;19966;-71
2021/08/24 10:17:27;;;;;;;;;;;18.90;75.60;;;;;;5024052;28;19917;-70
2021/08/24 10:19:56;;;;;;;;;;;18.90;74.20;;;;;;5051044;28;19970;-70
2021/08/24 10:22:26;;;;;;;;;;;18.90;73.70;;;;;;5051473;28;20317;-70
2021/08/24 10:25:15;;;;;;;;;;;18.90;73.20;;;;;;5032412;28;20419;-70
2021/08/24 10:27:44;;;;;;;;;;;19.00;73.40;;;;;;5033000;28;20394;-70
2021/08/24 10:30:12;;;;;;;;;;;19.30;73.20;;;;;;5044713;28;20583;-70
2021/08/24 10:32:40;;;;;;;;;;;19.30;71.50;;;;;;5049418;28;19935;-70
2021/08/24 10:35:25;;;;;;;;;;;19.30;71.10;;;;;;5049948;28;19913;-70
2021/08/24 10:37:50;;;;;;;;;;;19.30;71.10;;;;;;5050891;28;19908;-70
2021/08/24 10:40:18;;;;;;;;;;;19.40;69.70;;;;;;5050911;28;20368;-70
2021/08/24 10:43:13;;;;;;;;;;;19.50;69.70;;;;;;5049117;28;20579;-73
2021/08/24 10:45:40;;;;;;;;;;;19.70;69.20;;;;;;5030256;28;20158;-72
2021/08/24 10:48:12;;;;;;;;;;;19.70;69.80;;;;;;5024691;28;19938;-73
2021/08/24 10:50:56;;;;;;;;;;;19.80;70.30;;;;;;5049367;28;19916;-72
2021/08/24 10:53:27;;;;;;;;;;;19.90;69.90;;;;;;5047784;28;19928;-73
2021/08/24 10:55:56;;;;;;;;;;;20.00;68.60;;;;;;5031606;28;19972;-72
2021/08/24 10:58:34;;;;;;;;;;;20.10;66.20;;;;;;5049609;28;20416;-73
2021/08/24 11:01:11;;;;;;;;;;;20.10;65.10;;;;;;5023156;28;20354;-71
2021/08/24 11:03:53;;;;;;;;;;;20.00;63.60;;;;;;5047631;28;20367;-73
2021/08/24 11:06:31;;;;;;;;;;;20.00;64.30;;;;;;5032696;28;20287;-73
2021/08/24 11:09:09;;;;;;;;;;;19.90;63.00;;;;;;5049303;28;19959;-72
2021/08/24 11:11:47;;;;;;;;;;;20.00;63.70;;;;;;5030524;28;20345;-70
2021/08/24 11:14:24;;;;;;;;;;;20.20;62.60;;;;;;5049334;28;19925;-71
2021/08/24 11:17:10;;;;;;;;;;;20.20;63.30;;;;;;5049999;28;19915;-70
2021/08/24 11:19:35;;;;;;;;;;;20.30;63.10;;;;;;5003765;28;19966;-71
2021/08/24 11:22:20;;;;;;;;;;;20.30;63.50;;;;;;5031185;28;19920;-71
2021/08/24 11:24:57;;;;;;;;;;;20.40;64.10;;;;;;5030436;28;19967;-72
2021/08/24 11:27:40;;;;;;;;;;;20.40;63.20;;;;;;5048798;28;19920;-72
2021/08/24 11:30:20;;;;;;;;;;;20.30;63.10;;;;;;5048481;28;19980;-72
2021/08/24 11:32:48;;;;;;;;;;;20.20;63.70;;;;;;5049104;28;19917;-73
2021/08/24 11:35:18;;;;;;;;;;;20.00;63.70;;;;;;5048778;28;19928;-72
2021/08/24 11:37:48;;;;;;;;;;;20.00;63.50;;;;;;5028430;28;20038;-72
2021/08/24 11:40:16;;;;;;;;;;;20.00;63.90;;;;;;5049576;28;19912;-73
2021/08/24 11:42:46;;;;;;;;;;;20.00;63.60;;;;;;5049064;28;19917;-72
2021/08/24 11:45:23;;;;;;;;;;;20.10;62.90;;;;;;5048433;28;19917;-71
2021/08/24 11:47:52;;;;;;;;;;;20.20;62.30;;;;;;5048317;28;20283;-73
2021/08/24 11:50:24;;;;;;;;;;;20.20;62.30;;;;;;5046695;28;19940;-73
2021/08/24 11:52:56;;;;;;;;;;;20.40;62.10;;;;;;5049023;28;20283;-71
2021/08/24 11:55:37;;;;;;;;;;;20.40;61.40;;;;;;5046810;28;20271;-72
2021/08/24 11:58:28;;;;;;;;;;;20.40;61.20;;;;;;5048687;28;19923;-73
2021/08/24 12:00:56;;;;;;;;;;;20.50;61.50;;;;;;5048201;28;19924;-72
2021/08/24 12:03:22;;;;;;;;;;;20.60;60.50;;;;;;5023278;28;20394;-72
2021/08/24 12:06:02;;;;;;;;;;;20.70;58.50;;;;;;5023139;28;20031;-71
2021/08/24 12:08:29;;;;;;;;;;;20.80;57.40;;;;;;5048363;28;19915;-70
2021/08/24 12:11:05;;;;;;;;;;;20.70;56.50;;;;;;5046789;28;19963;-71
2021/08/24 12:13:33;;;;;;;;;;;20.70;57.30;;;;;;5048305;28;19912;-71
2021/08/24 12:16:17;;;;;;;;;;;20.70;57.80;;;;;;5023011;28;19919;-71
2021/08/24 12:18:43;;;;;;;;;;;20.90;57.80;;;;;;5049306;28;19939;-73
2021/08/24 12:21:31;;;;;;;;;;;21.10;56.70;;;;;;5022864;28;20379;-70
2021/08/24 12:23:57;;;;;;;;;;;21.10;56.60;;;;;;5028528;28;19929;-71
2021/08/24 12:26:23;;;;;;;;;;;21.10;54.90;;;;;;5046907;28;19940;-72
2021/08/24 12:28:49;;;;;;;;;;;20.90;54.90;;;;;;5047741;28;19917;-72
2021/08/24 12:31:29;;;;;;;;;;;20.80;54.40;;;;;;5049146;28;20006;-72
2021/08/24 12:33:55;;;;;;;;;;;20.80;55.50;;;;;;5047182;28;19917;-72
2021/08/24 12:36:23;;;;;;;;;;;21.00;54.60;;;;;;5048973;28;19971;-71
2021/08/24 12:38:55;;;;;;;;;;;21.10;55.40;;;;;;5048588;28;19913;-71
2021/08/24 12:41:36;;;;;;;;;;;21.20;55.50;;;;;;5047280;28;19913;-72
2021/08/24 12:44:07;;;;;;;;;;;21.10;55.40;;;;;;5046162;28;20714;-71
2021/08/24 12:46:33;;;;;;;;;;;21.20;55.90;;;;;;5030503;28;19916;-72
2021/08/24 12:49:18;;;;;;;;;;;21.40;56.90;;;;;;5047819;28;19940;-72
2021/08/24 12:51:46;;;;;;;;;;;21.50;56.40;;;;;;5039004;28;19917;-73
2021/08/24 12:54:13;;;;;;;;;;;21.50;56.40;;;;;;5047510;28;20307;-73
2021/08/24 12:56:41;;;;;;;;;;;21.30;56.60;;;;;;5029191;28;19913;-73
2021/08/24 12:59:08;;;;;;;;;;;21.00;56.00;;;;;;5047240;28;19916;-72
2021/08/24 13:01:33;;;;;;;;;;;20.80;56.90;;;;;;5048703;28;19913;-71
2021/08/24 13:04:05;;;;;;;;;;;20.80;57.50;;;;;;5021164;28;20398;-71
2021/08/24 13:06:36;;;;;;;;;;;20.90;57.40;;;;;;5048249;28;19952;-72
2021/08/24 13:09:20;;;;;;;;;;;21.20;57.20;;;;;;5048175;28;19917;-71
2021/08/24 13:12:05;;;;;;;;;;;21.40;56.80;;;;;;5038567;28;19995;-71
2021/08/24 13:14:47;;;;;;;;;;;21.40;57.00;;;;;;5025707;28;19913;-70
2021/08/24 13:17:15;;;;;;;;;;;21.40;54.10;;;;;;5046630;28;19952;-71
2021/08/24 13:19:41;;;;;;;;;;;21.40;52.80;;;;;;5047905;28;19921;-71
2021/08/24 13:22:09;;;;;;;;;;;21.40;53.20;;;;;;5028312;28;19921;-72
2021/08/24 13:24:37;;;;;;;;;;;21.40;53.10;;;;;;5046034;28;19931;-72
2021/08/24 13:27:13;;;;;;;;;;;21.50;53.30;;;;;;5050009;28;20267;-72
2021/08/24 13:29:40;;;;;;;;;;;21.40;53.80;;;;;;5033125;28;20007;-72
2021/08/24 13:32:25;;;;;;;;;;;21.30;54.40;;;;;;5051225;28;19966;-73
2021/08/24 13:34:53;;;;;;;;;;;21.40;54.70;;;;;;5048730;28;20344;-70
2021/08/24 13:37:38;;;;;;;;;;;21.60;54.80;;;;;;5049450;28;19921;-71
2021/08/24 13:40:10;;;;;;;;;;;21.60;54.50;;;;;;5042791;28;19916;-71
2021/08/24 13:42:45;;;;;;;;;;;21.50;52.70;;;;;;5033973;28;20157;-70
2021/08/24 13:45:19;;;;;;;;;;;21.40;53.00;;;;;;5050555;28;19921;-72
2021/08/24 13:47:49;;;;;;;;;;;21.40;53.80;;;;;;5050849;28;19967;-72
2021/08/24 13:50:34;;;;;;;;;;;21.30;53.40;;;;;;5051056;28;19912;-73
2021/08/24 13:53:01;;;;;;;;;;;21.40;54.20;;;;;;5049116;28;19942;-73
2021/08/24 13:55:34;;;;;;;;;;;21.40;54.10;;;;;;5050040;28;19924;-73
2021/08/24 13:58:14;;;;;;;;;;;21.40;54.00;;;;;;5024540;28;19917;-73
2021/08/24 14:00:39;;;;;;;;;;;21.50;54.30;;;;;;5049729;28;20342;-72
2021/08/24 14:03:11;;;;;;;;;;;21.40;53.60;;;;;;5033528;28;19950;-72
2021/08/24 14:05:37;;;;;;;;;;;21.50;53.90;;;;;;5050813;28;19970;-72
2021/08/24 14:08:02;;;;;;;;;;;21.40;53.90;;;;;;5049825;28;20330;-73
2021/08/24 14:10:29;;;;;;;;;;;21.50;53.80;;;;;;5050487;28;19916;-72
2021/08/24 14:12:58;;;;;;;;;;;21.40;53.90;;;;;;5051058;28;19908;-72
2021/08/24 14:15:31;;;;;;;;;;;21.30;54.10;;;;;;5050158;28;19923;-72
2021/08/24 14:17:59;;;;;;;;;;;21.30;53.90;;;;;;5051914;28;19909;-72
2021/08/24 14:20:33;;;;;;;;;;;21.30;54.40;;;;;;5055920;28;19913;-72
2021/08/24 14:23:19;;;;;;;;;;;21.40;54.30;;;;;;5047636;28;20314;-73
2021/08/24 14:25:47;;;;;;;;;;;21.40;54.40;;;;;;5057680;28;19920;-72
2021/08/24 14:28:17;;;;;;;;;;;21.40;54.30;;;;;;5028539;28;19921;-72